Time;durP1;ratioP1;P1;durP2;ratioP2;P2;SDS_P1;SDS_P2;PMS_P1;PMS_P2;Temp;Humidity;BMP_temperature;BMP_pressure;BME280_temperature;BME280_humidity;BME280_pressure;Samples;Min_cycle;Max_cycle;Signal;HPM_P1;HPM_P2
2024/02/06 00:00:11;;;;;;;16.70;14.88;;;;;;;;;;5021517;28;20029;-45
2024/02/06 00:02:37;;;;;;;18.13;15.52;;;;;;;;;;5018325;28;20080;-50
2024/02/06 00:05:03;;;;;;;16.90;14.25;;;;;;;;;;5012316;28;20499;-50
2024/02/06 00:07:29;;;;;;;17.00;14.40;;;;;;;;;;5009219;28;20715;-49
2024/02/06 00:09:55;;;;;;;19.77;14.52;;;;;;;;;;5009185;28;20041;-47
2024/02/06 00:12:21;;;;;;;16.30;13.73;;;;;;;;;;5008235;28;20025;-46
2024/02/06 00:14:47;;;;;;;15.70;13.60;;;;;;;;;;5010655;28;20030;-50
2024/02/06 00:17:13;;;;;;;19.10;14.65;;;;;;;;;;5010564;28;20511;-48
2024/02/06 00:19:39;;;;;;;16.10;13.40;;;;;;;;;;5011583;28;20022;-48
2024/02/06 00:22:05;;;;;;;16.13;13.80;;;;;;;;;;5067223;22;20106;-59
2024/02/06 00:24:31;;;;;;;15.48;12.82;;;;;;;;;;5049059;28;20098;-57
2024/02/06 00:26:58;;;;;;;17.83;14.00;;;;;;;;;;5049844;28;20045;-59
2024/02/06 00:29:25;;;;;;;15.45;12.40;;;;;;;;;;5048373;28;20139;-59
2024/02/06 00:31:51;;;;;;;16.17;13.82;;;;;;;;;;5049530;28;20054;-60
2024/02/06 00:34:18;;;;;;;16.73;12.35;;;;;;;;;;5048237;28;20483;-54
2024/02/06 00:36:45;;;;;;;14.90;11.80;;;;;;;;;;5049670;28;20048;-58
2024/02/06 00:39:11;;;;;;;18.85;12.50;;;;;;;;;;5050031;28;20598;-59
2024/02/06 00:41:38;;;;;;;15.43;11.13;;;;;;;;;;5049696;28;20028;-59
2024/02/06 00:44:04;;;;;;;16.52;11.85;;;;;;;;;;5050076;28;20033;-60
2024/02/06 00:46:30;;;;;;;19.02;12.85;;;;;;;;;;5050269;28;20028;-58
2024/02/06 00:48:56;;;;;;;14.70;11.30;;;;;;;;;;5049860;28;20033;-59
2024/02/06 00:51:22;;;;;;;14.95;9.30;;;;;;;;;;5049826;28;20036;-59
2024/02/06 00:53:48;;;;;;;24.92;13.05;;;;;;;;;;5049479;28;20035;-61
2024/02/06 00:56:14;;;;;;;17.30;9.48;;;;;;;;;;5049721;28;20025;-58
2024/02/06 00:58:41;;;;;;;15.90;11.82;;;;;;;;;;5049746;28;20017;-58
2024/02/06 01:01:07;;;;;;;13.80;9.10;;;;;;;;;;5049783;28;20041;-56
2024/02/06 01:03:33;;;;;;;16.15;10.38;;;;;;;;;;5049704;28;20075;-57
2024/02/06 01:05:59;;;;;;;17.55;14.43;;;;;;;;;;5049673;28;20029;-59
2024/02/06 01:08:25;;;;;;;16.13;10.25;;;;;;;;;;5049799;28;20108;-56
2024/02/06 01:10:51;;;;;;;16.38;10.73;;;;;;;;;;5049571;28;20035;-59
2024/02/06 01:13:17;;;;;;;14.27;9.80;;;;;;;;;;5049625;28;20053;-59
2024/02/06 01:15:43;;;;;;;15.25;10.38;;;;;;;;;;5049583;28;20032;-58
2024/02/06 01:18:09;;;;;;;14.45;9.73;;;;;;;;;;5049239;28;20041;-54
2024/02/06 01:20:35;;;;;;;13.55;8.68;;;;;;;;;;5049300;28;20021;-59
2024/02/06 01:23:01;;;;;;;22.50;10.02;;;;;;;;;;5049452;28;20394;-59
2024/02/06 01:25:29;;;;;;;14.35;9.32;;;;;;;;;;5048723;28;20395;-58
2024/02/06 01:27:56;;;;;;;14.00;9.55;;;;;;;;;;5049832;28;20033;-59
2024/02/06 01:30:22;;;;;;;21.10;11.27;;;;;;;;;;5048441;28;20053;-61
2024/02/06 01:32:48;;;;;;;15.60;10.02;;;;;;;;;;5049177;28;20029;-59
2024/02/06 01:35:14;;;;;;;18.55;10.55;;;;;;;;;;5047818;28;20513;-60
2024/02/06 01:37:40;;;;;;;15.27;10.35;;;;;;;;;;5047869;28;20119;-58
2024/02/06 01:40:07;;;;;;;14.85;9.30;;;;;;;;;;5049402;28;20032;-58
2024/02/06 01:42:33;;;;;;;14.43;8.98;;;;;;;;;;5049006;28;20025;-58
2024/02/06 01:45:00;;;;;;;14.10;8.98;;;;;;;;;;5049150;28;20100;-60
2024/02/06 01:47:27;;;;;;;17.05;11.35;;;;;;;;;;5049178;28;20033;-60
2024/02/06 01:49:55;;;;;;;14.98;8.48;;;;;;;;;;5049144;28;20043;-59
2024/02/06 01:52:21;;;;;;;13.48;8.25;;;;;;;;;;5048985;28;20041;-58
2024/02/06 01:54:47;;;;;;;14.07;9.70;;;;;;;;;;5049127;28;20025;-60
2024/02/06 01:57:13;;;;;;;17.42;10.60;;;;;;;;;;5049224;28;20040;-58
2024/02/06 01:59:40;;;;;;;13.77;7.95;;;;;;;;;;5049444;28;20033;-59
2024/02/06 02:02:06;;;;;;;15.82;9.32;;;;;;;;;;5047703;28;20502;-59
2024/02/06 02:04:33;;;;;;;15.85;9.30;;;;;;;;;;5049172;28;20057;-58
2024/02/06 02:07:00;;;;;;;13.48;8.45;;;;;;;;;;5049030;28;20403;-57
2024/02/06 02:09:26;;;;;;;13.50;8.48;;;;;;;;;;5049031;28;20037;-59
2024/02/06 02:11:52;;;;;;;16.27;11.15;;;;;;;;;;5049115;28;20075;-57
2024/02/06 02:14:18;;;;;;;14.60;8.30;;;;;;;;;;5048994;28;20029;-60
2024/02/06 02:16:44;;;;;;;14.30;9.23;;;;;;;;;;5049876;28;20040;-60
2024/02/06 02:19:10;;;;;;;23.63;12.63;;;;;;;;;;5048020;28;20017;-58
2024/02/06 02:21:38;;;;;;;13.90;9.18;;;;;;;;;;5048831;28;20110;-58
2024/02/06 02:24:04;;;;;;;16.40;8.98;;;;;;;;;;5048736;28;20088;-60
2024/02/06 02:26:30;;;;;;;15.27;8.90;;;;;;;;;;5048758;28;20029;-61
2024/02/06 02:28:58;;;;;;;16.80;9.98;;;;;;;;;;5048892;28;20079;-60
2024/02/06 02:31:24;;;;;;;16.30;10.63;;;;;;;;;;5048421;28;20040;-58
2024/02/06 02:33:50;;;;;;;13.85;8.65;;;;;;;;;;5048416;28;20043;-58
2024/02/06 02:36:16;;;;;;;14.20;8.63;;;;;;;;;;5051645;28;20450;-59
2024/02/06 02:38:42;;;;;;;12.80;7.53;;;;;;;;;;5052762;28;20112;-56
2024/02/06 02:41:08;;;;;;;13.52;8.65;;;;;;;;;;5052650;28;20380;-57
2024/02/06 02:43:34;;;;;;;15.98;9.45;;;;;;;;;;5052227;28;20052;-58
2024/02/06 02:46:00;;;;;;;20.75;10.23;;;;;;;;;;5052461;28;20495;-57
2024/02/06 02:48:26;;;;;;;19.20;8.10;;;;;;;;;;5052398;28;20028;-60
2024/02/06 02:50:53;;;;;;;14.77;9.32;;;;;;;;;;5052230;28;20028;-58
2024/02/06 02:53:19;;;;;;;12.95;7.60;;;;;;;;;;5051999;28;20554;-59
2024/02/06 02:55:45;;;;;;;16.30;10.75;;;;;;;;;;5052000;28;20021;-58
2024/02/06 02:58:11;;;;;;;14.48;8.50;;;;;;;;;;5051965;28;20055;-58
2024/02/06 03:00:37;;;;;;;13.50;8.43;;;;;;;;;;5051834;28;20131;-59
2024/02/06 03:03:03;;;;;;;13.32;7.78;;;;;;;;;;5050715;28;20472;-59
2024/02/06 03:05:29;;;;;;;14.80;9.05;;;;;;;;;;5050666;28;20025;-57
2024/02/06 03:07:55;;;;;;;14.00;8.55;;;;;;;;;;5050384;28;20044;-59
2024/02/06 03:10:21;;;;;;;14.75;12.75;;;;;;;;;;5050525;28;20041;-58
2024/02/06 03:12:47;;;;;;;13.80;9.45;;;;;;;;;;5051375;28;20021;-59
2024/02/06 03:15:13;;;;;;;14.10;9.10;;;;;;;;;;5051706;28;20112;-57
2024/02/06 03:17:39;;;;;;;15.15;9.80;;;;;;;;;;5051624;28;20017;-57
2024/02/06 03:20:05;;;;;;;13.25;8.63;;;;;;;;;;5051473;28;20043;-61
2024/02/06 03:22:34;;;;;;;12.93;7.63;;;;;;;;;;5051523;28;20035;-57
2024/02/06 03:25:00;;;;;;;14.00;8.18;;;;;;;;;;5050268;28;20024;-60
2024/02/06 03:27:26;;;;;;;16.98;10.13;;;;;;;;;;5051397;28;20035;-59
2024/02/06 03:29:53;;;;;;;14.05;9.07;;;;;;;;;;5049885;28;20049;-57
2024/02/06 03:32:19;;;;;;;15.88;10.75;;;;;;;;;;5051045;28;20040;-57
2024/02/06 03:34:45;;;;;;;13.20;8.13;;;;;;;;;;5051446;28;20032;-61
2024/02/06 03:37:12;;;;;;;13.45;8.30;;;;;;;;;;5050189;28;20025;-61
2024/02/06 03:39:38;;;;;;;14.35;8.50;;;;;;;;;;5051464;28;20033;-55
2024/02/06 03:42:04;;;;;;;14.23;9.90;;;;;;;;;;5051220;28;20098;-58
2024/02/06 03:44:30;;;;;;;13.80;8.23;;;;;;;;;;5051241;28;20688;-58
2024/02/06 03:46:56;;;;;;;14.68;8.77;;;;;;;;;;5050325;28;20031;-59
2024/02/06 03:49:22;;;;;;;14.18;8.52;;;;;;;;;;5051261;28;20028;-59
2024/02/06 03:51:48;;;;;;;12.80;8.05;;;;;;;;;;5051218;28;20033;-61
2024/02/06 03:54:14;;;;;;;13.13;7.82;;;;;;;;;;5049983;28;20398;-60
2024/02/06 03:56:40;;;;;;;15.55;8.35;;;;;;;;;;5051303;28;20017;-59
2024/02/06 03:59:06;;;;;;;13.73;8.82;;;;;;;;;;5051561;28;20517;-59
2024/02/06 04:01:32;;;;;;;13.68;8.05;;;;;;;;;;5050732;28;20025;-59
2024/02/06 04:03:58;;;;;;;16.63;9.20;;;;;;;;;;5051152;28;20059;-57
2024/02/06 04:06:24;;;;;;;13.40;8.15;;;;;;;;;;5050942;28;20469;-57
2024/02/06 04:08:50;;;;;;;14.20;8.32;;;;;;;;;;5049460;28;20513;-57
2024/02/06 04:11:16;;;;;;;13.27;8.07;;;;;;;;;;5050600;28;20082;-60
2024/02/06 04:13:42;;;;;;;17.60;10.32;;;;;;;;;;5050756;28;20066;-59
2024/02/06 04:16:08;;;;;;;12.93;7.60;;;;;;;;;;5050605;28;20056;-59
2024/02/06 04:18:34;;;;;;;13.90;8.65;;;;;;;;;;5050427;28;20071;-55
2024/02/06 04:21:00;;;;;;;18.25;9.13;;;;;;;;;;5050293;28;20033;-59
2024/02/06 04:23:26;;;;;;;22.10;9.23;;;;;;;;;;5050144;28;20057;-56
2024/02/06 04:25:52;;;;;;;15.20;8.00;;;;;;;;;;5049022;28;20112;-60
2024/02/06 04:28:19;;;;;;;16.25;10.05;;;;;;;;;;5050280;28;20059;-57
2024/02/06 04:30:45;;;;;;;17.35;9.25;;;;;;;;;;5050066;28;20021;-61
2024/02/06 04:33:11;;;;;;;16.00;10.05;;;;;;;;;;5050021;28;20025;-58
2024/02/06 04:35:37;;;;;;;13.35;8.18;;;;;;;;;;5049855;28;20040;-59
2024/02/06 04:38:04;;;;;;;17.88;9.10;;;;;;;;;;5050089;28;20104;-60
2024/02/06 04:40:30;;;;;;;24.58;9.98;;;;;;;;;;5050200;28;20017;-60
2024/02/06 04:42:56;;;;;;;13.88;8.57;;;;;;;;;;5049867;28;20032;-60
2024/02/06 04:45:22;;;;;;;14.57;8.65;;;;;;;;;;5049903;28;20108;-60
2024/02/06 04:47:49;;;;;;;13.52;8.10;;;;;;;;;;5049826;28;20053;-58
2024/02/06 04:50:18;;;;;;;14.85;9.07;;;;;;;;;;5048320;28;20065;-60
2024/02/06 04:52:44;;;;;;;18.15;10.13;;;;;;;;;;5049724;28;20104;-60
2024/02/06 04:55:11;;;;;;;16.58;9.57;;;;;;;;;;5050157;28;20532;-57
2024/02/06 04:57:37;;;;;;;14.20;8.88;;;;;;;;;;5049509;28;20133;-53
2024/02/06 05:00:04;;;;;;;13.93;8.70;;;;;;;;;;5049881;28;20095;-54
2024/02/06 05:02:30;;;;;;;17.40;9.48;;;;;;;;;;5049657;28;20021;-60
2024/02/06 05:04:56;;;;;;;16.27;10.48;;;;;;;;;;5048333;28;20489;-52
2024/02/06 05:07:22;;;;;;;14.43;9.60;;;;;;;;;;5048647;28;20025;-56
2024/02/06 05:09:48;;;;;;;17.50;10.35;;;;;;;;;;5048467;28;20060;-56
2024/02/06 05:12:14;;;;;;;15.25;9.15;;;;;;;;;;5049903;28;20029;-56
2024/02/06 05:14:40;;;;;;;14.52;9.63;;;;;;;;;;5049831;28;20032;-56
2024/02/06 05:17:06;;;;;;;13.60;8.80;;;;;;;;;;5049932;28;20021;-59
2024/02/06 05:19:32;;;;;;;14.65;9.57;;;;;;;;;;5049575;28;20432;-56
2024/02/06 05:21:59;;;;;;;16.85;10.65;;;;;;;;;;5049546;28;20043;-60
2024/02/06 05:24:26;;;;;;;14.85;9.55;;;;;;;;;;5050044;28;20052;-56
2024/02/06 05:26:53;;;;;;;14.30;9.18;;;;;;;;;;5049992;28;20422;-60
2024/02/06 05:29:19;;;;;;;13.80;9.38;;;;;;;;;;5049775;28;20040;-57
2024/02/06 05:31:45;;;;;;;14.38;9.57;;;;;;;;;;5049879;28;20096;-57
2024/02/06 05:34:11;;;;;;;13.70;8.93;;;;;;;;;;5048629;28;20043;-57
2024/02/06 05:36:37;;;;;;;14.13;9.20;;;;;;;;;;5049973;28;20025;-54
2024/02/06 05:39:05;;;;;;;19.92;11.05;;;;;;;;;;5050179;28;20654;-55
2024/02/06 05:41:31;;;;;;;13.80;9.25;;;;;;;;;;5049205;28;20027;-55
2024/02/06 05:43:57;;;;;;;14.27;10.20;;;;;;;;;;5048406;28;20027;-54
2024/02/06 05:46:24;;;;;;;14.93;11.10;;;;;;;;;;5047709;28;20028;-55
2024/02/06 05:48:50;;;;;;;14.77;10.65;;;;;;;;;;5049329;28;20021;-53
2024/02/06 05:51:16;;;;;;;18.42;13.70;;;;;;;;;;5049133;28;20107;-54
2024/02/06 05:53:42;;;;;;;16.98;10.38;;;;;;;;;;5049104;28;20129;-56
2024/02/06 05:56:08;;;;;;;14.30;10.32;;;;;;;;;;5047777;28;20025;-58
2024/02/06 05:58:37;;;;;;;15.13;11.50;;;;;;;;;;5050119;28;20026;-57
2024/02/06 06:01:04;;;;;;;14.40;10.80;;;;;;;;;;5049156;28;20032;-56
2024/02/06 06:03:30;;;;;;;14.65;11.20;;;;;;;;;;5048479;28;20145;-60
2024/02/06 06:05:56;;;;;;;17.23;12.07;;;;;;;;;;5049168;28;20055;-57
2024/02/06 06:08:23;;;;;;;19.20;11.75;;;;;;;;;;5048996;28;20439;-58
2024/02/06 06:10:49;;;;;;;16.20;12.38;;;;;;;;;;5051586;28;20499;-62
2024/02/06 06:13:15;;;;;;;16.33;12.88;;;;;;;;;;5051406;28;20115;-57
2024/02/06 06:15:41;;;;;;;14.60;11.50;;;;;;;;;;5053576;28;20103;-55
2024/02/06 06:18:07;;;;;;;14.70;11.60;;;;;;;;;;5054230;28;20657;-58
2024/02/06 06:20:33;;;;;;;15.17;12.43;;;;;;;;;;5069721;22;20037;-49
2024/02/06 06:22:59;;;;;;;15.30;13.10;;;;;;;;;;5031626;28;20153;-45
2024/02/06 06:25:25;;;;;;;22.20;12.82;;;;;;;;;;5034061;28;20025;-46
2024/02/06 06:27:52;;;;;;;17.27;15.57;;;;;;;;;;5033862;28;20029;-47
2024/02/06 06:30:18;;;;;;;16.33;14.50;;;;;;;;;;5034899;28;20415;-48
2024/02/06 06:32:44;;;;;;;18.13;16.33;;;;;;;;;;5033367;28;20100;-55
2024/02/06 06:35:10;;;;;;;19.48;17.65;;;;;;;;;;5033143;28;20509;-48
2024/02/06 06:37:36;;;;;;;18.35;16.55;;;;;;;;;;5033205;28;20380;-49
2024/02/06 06:40:04;;;;;;;25.27;18.02;;;;;;;;;;5033118;28;20048;-46
2024/02/06 06:42:30;;;;;;;17.65;15.88;;;;;;;;;;5032655;28;20044;-47
2024/02/06 06:44:56;;;;;;;17.85;16.05;;;;;;;;;;5032841;28;20413;-47
2024/02/06 06:47:23;;;;;;;19.85;16.70;;;;;;;;;;5032579;28;20109;-48
2024/02/06 06:49:49;;;;;;;20.45;18.40;;;;;;;;;;5032931;28;20463;-46
2024/02/06 06:52:15;;;;;;;19.15;17.25;;;;;;;;;;5032626;28;20095;-48
2024/02/06 06:54:41;;;;;;;18.90;17.10;;;;;;;;;;5032487;28;20060;-45
2024/02/06 06:57:08;;;;;;;18.10;16.30;;;;;;;;;;5032866;28;20476;-45
2024/02/06 06:59:34;;;;;;;24.02;21.92;;;;;;;;;;5032752;28;20029;-50
2024/02/06 07:02:00;;;;;;;24.52;22.42;;;;;;;;;;5032304;28;20468;-44
2024/02/06 07:04:27;;;;;;;24.42;22.33;;;;;;;;;;5032673;28;20036;-45
2024/02/06 07:06:53;;;;;;;25.27;23.08;;;;;;;;;;5032897;28;20029;-48
2024/02/06 07:09:20;;;;;;;27.65;25.15;;;;;;;;;;5032711;28;20086;-48
2024/02/06 07:11:46;;;;;;;25.08;22.88;;;;;;;;;;5032689;28;20026;-45
2024/02/06 07:14:12;;;;;;;26.38;23.90;;;;;;;;;;5032376;28;20040;-48
2024/02/06 07:16:39;;;;;;;24.45;22.10;;;;;;;;;;5032219;28;20095;-44
2024/02/06 07:19:06;;;;;;;24.13;21.98;;;;;;;;;;5032405;28;20029;-50
2024/02/06 07:21:32;;;;;;;24.85;22.63;;;;;;;;;;5032083;28;20121;-46
2024/02/06 07:23:58;;;;;;;21.30;19.40;;;;;;;;;;5032814;28;20084;-48
2024/02/06 07:26:24;;;;;;;20.98;19.08;;;;;;;;;;5032380;28;20475;-49
2024/02/06 07:28:50;;;;;;;21.67;19.67;;;;;;;;;;5032089;28;20058;-46
2024/02/06 07:31:16;;;;;;;21.13;19.23;;;;;;;;;;5032067;28;20022;-48
2024/02/06 07:33:42;;;;;;;22.83;20.83;;;;;;;;;;5031937;28;20026;-53
2024/02/06 07:36:08;;;;;;;24.42;20.25;;;;;;;;;;5031976;28;20510;-46
2024/02/06 07:38:34;;;;;;;18.83;17.02;;;;;;;;;;5032535;28;20033;-45
2024/02/06 07:41:00;;;;;;;19.88;17.90;;;;;;;;;;5032047;28;20018;-52
2024/02/06 07:43:29;;;;;;;19.33;17.42;;;;;;;;;;5031942;28;20038;-45
2024/02/06 07:45:56;;;;;;;18.52;16.73;;;;;;;;;;5032149;28;20029;-46
2024/02/06 07:48:22;;;;;;;18.50;16.60;;;;;;;;;;5040894;28;20482;-46
2024/02/06 07:50:49;;;;;;;17.27;15.43;;;;;;;;;;5051799;28;20128;-46
2024/02/06 07:53:16;;;;;;;17.75;14.80;;;;;;;;;;5050342;28;20422;-50
2024/02/06 07:55:42;;;;;;;17.00;14.75;;;;;;;;;;5051438;28;20086;-46
2024/02/06 07:58:08;;;;;;;17.75;15.85;;;;;;;;;;5051627;28;20025;-49
2024/02/06 08:00:35;;;;;;;17.17;14.68;;;;;;;;;;5049997;28;20043;-45
2024/02/06 08:03:01;;;;;;;37.72;15.95;;;;;;;;;;5051394;28;20025;-45
2024/02/06 08:05:28;;;;;;;16.58;14.77;;;;;;;;;;5051450;28;20029;-51
2024/02/06 08:07:54;;;;;;;16.63;14.43;;;;;;;;;;5035761;28;20017;-52
2024/02/06 08:10:20;;;;;;;16.05;14.35;;;;;;;;;;5022472;28;20042;-57
2024/02/06 08:12:46;;;;;;;15.52;13.23;;;;;;;;;;5015464;28;20637;-56
2024/02/06 08:15:12;;;;;;;16.50;13.80;;;;;;;;;;5011674;28;20132;-53
2024/02/06 08:17:46;;;;;;;15.80;14.00;;;;;;;;;;5031397;28;20641;-52
2024/02/06 08:20:13;;;;;;;16.40;14.45;;;;;;;;;;5030304;28;20028;-58
2024/02/06 08:22:39;;;;;;;15.27;12.50;;;;;;;;;;5029505;28;20475;-56
2024/02/06 08:25:09;;;;;;;15.32;12.02;;;;;;;;;;5018845;28;20022;-49
2024/02/06 08:27:35;;;;;;;15.98;12.68;;;;;;;;;;5010613;28;20082;-54
2024/02/06 08:30:03;;;;;;;14.32;9.73;;;;;;;;;;5010651;28;20473;-56
2024/02/06 08:32:29;;;;;;;14.20;9.90;;;;;;;;;;5010037;28;20026;-49
2024/02/06 08:34:55;;;;;;;14.43;9.60;;;;;;;;;;5010374;28;20034;-46
2024/02/06 08:37:21;;;;;;;13.80;9.18;;;;;;;;;;5011173;28;20097;-47
2024/02/06 08:39:48;;;;;;;15.65;9.93;;;;;;;;;;5011209;28;20040;-51
2024/02/06 08:42:14;;;;;;;15.85;9.68;;;;;;;;;;5022865;28;20021;-46
2024/02/06 08:44:40;;;;;;;16.73;10.80;;;;;;;;;;5030653;28;20036;-48
2024/02/06 08:47:06;;;;;;;14.02;9.32;;;;;;;;;;5030606;28;20033;-46
2024/02/06 08:49:32;;;;;;;14.50;9.65;;;;;;;;;;5030751;28;20484;-47
2024/02/06 08:51:58;;;;;;;13.73;9.20;;;;;;;;;;5030312;28;20022;-48
2024/02/06 08:54:24;;;;;;;16.38;9.20;;;;;;;;;;5029837;28;20515;-48
2024/02/06 08:56:51;;;;;;;23.00;10.23;;;;;;;;;;5029442;28;20108;-53
2024/02/06 08:59:17;;;;;;;13.80;9.00;;;;;;;;;;5030754;28;20025;-48
2024/02/06 09:01:43;;;;;;;16.95;9.55;;;;;;;;;;5030134;28;20029;-46
2024/02/06 09:04:09;;;;;;;13.60;8.68;;;;;;;;;;5030499;28;20502;-49
2024/02/06 09:06:36;;;;;;;15.65;10.25;;;;;;;;;;5028978;28;20129;-48
2024/02/06 09:09:03;;;;;;;14.48;9.68;;;;;;;;;;5030230;28;20021;-51
2024/02/06 09:11:29;;;;;;;14.88;9.10;;;;;;;;;;5029840;28;20049;-52
2024/02/06 09:13:55;;;;;;;17.58;10.45;;;;;;;;;;5028800;28;20029;-50
2024/02/06 09:16:22;;;;;;;13.65;8.70;;;;;;;;;;5030418;28;20029;-50
2024/02/06 09:18:52;;;;;;;15.90;11.20;;;;;;;;;;5030239;28;20018;-49
2024/02/06 09:21:19;;;;;;;13.70;8.93;;;;;;;;;;5030026;28;20030;-45
2024/02/06 09:23:45;;;;;;;14.07;9.00;;;;;;;;;;5029872;28;20043;-48
2024/02/06 09:26:12;;;;;;;14.60;10.23;;;;;;;;;;5030184;28;20100;-49
2024/02/06 09:28:38;;;;;;;14.65;9.63;;;;;;;;;;5030021;28;20033;-53
2024/02/06 09:31:05;;;;;;;14.15;9.57;;;;;;;;;;5028272;28;20025;-50
2024/02/06 09:33:31;;;;;;;14.70;9.60;;;;;;;;;;5029897;28;20031;-47
2024/02/06 09:35:57;;;;;;;14.55;10.07;;;;;;;;;;5029773;28;20029;-46
2024/02/06 09:38:23;;;;;;;13.63;8.70;;;;;;;;;;5028900;28;20033;-46
2024/02/06 09:40:49;;;;;;;14.20;9.75;;;;;;;;;;5030172;28;20040;-47
2024/02/06 09:43:15;;;;;;;17.10;9.23;;;;;;;;;;5030134;28;20488;-47
2024/02/06 09:45:42;;;;;;;18.35;10.63;;;;;;;;;;5029157;28;20036;-48
2024/02/06 09:48:08;;;;;;;14.43;10.25;;;;;;;;;;5029829;28;20057;-50
2024/02/06 09:50:36;;;;;;;16.88;9.85;;;;;;;;;;5029774;28;20026;-47
2024/02/06 09:53:05;;;;;;;14.10;8.73;;;;;;;;;;5029402;28;20502;-51
2024/02/06 09:55:31;;;;;;;15.73;9.05;;;;;;;;;;5029889;28;20041;-47
2024/02/06 09:57:58;;;;;;;13.35;8.00;;;;;;;;;;5029793;28;20030;-45
2024/02/06 10:00:24;;;;;;;14.20;8.27;;;;;;;;;;5028438;28;20033;-48
2024/02/06 10:02:53;;;;;;;13.48;8.25;;;;;;;;;;5029781;28;20029;-53
2024/02/06 10:05:22;;;;;;;15.45;9.00;;;;;;;;;;5030145;28;20510;-47
2024/02/06 10:07:51;;;;;;;13.77;8.32;;;;;;;;;;5029989;28;20036;-50
2024/02/06 10:10:19;;;;;;;15.00;8.82;;;;;;;;;;5029923;28;20395;-52
2024/02/06 10:12:45;;;;;;;15.27;9.32;;;;;;;;;;5029341;28;20021;-47
2024/02/06 10:15:17;;;;;;;14.10;8.90;;;;;;;;;;5029380;28;20101;-47
2024/02/06 10:17:43;;;;;;;16.45;9.80;;;;;;;;;;5030059;28;20083;-49
2024/02/06 10:20:09;;;;;;;13.57;8.40;;;;;;;;;;5029651;28;20033;-46
2024/02/06 10:22:35;;;;;;;14.00;8.90;;;;;;;;;;5029288;28;20546;-48
2024/02/06 10:25:04;;;;;;;13.48;8.30;;;;;;;;;;5029920;28;20091;-49
2024/02/06 10:27:31;;;;;;;13.50;8.50;;;;;;;;;;5029652;28;20071;-47
2024/02/06 10:30:00;;;;;;;14.13;8.70;;;;;;;;;;5029554;28;20040;-50
2024/02/06 10:32:31;;;;;;;16.50;9.32;;;;;;;;;;5029475;28;20063;-47
2024/02/06 10:35:07;;;;;;;13.63;8.50;;;;;;;;;;5029128;28;20061;-48
2024/02/06 10:37:40;;;;;;;13.75;8.95;;;;;;;;;;5028766;28;20037;-51
2024/02/06 10:40:07;;;;;;;13.68;8.90;;;;;;;;;;5012393;28;20440;-51
2024/02/06 10:42:33;;;;;;;13.52;8.43;;;;;;;;;;5018903;28;20100;-48
2024/02/06 10:44:59;;;;;;;19.15;8.98;;;;;;;;;;5018248;28;20040;-47
2024/02/06 10:47:25;;;;;;;13.68;8.77;;;;;;;;;;5027013;28;20044;-46
2024/02/06 10:50:04;;;;;;;26.48;9.55;;;;;;;;;;5026092;28;20018;-46
2024/02/06 10:52:30;;;;;;;14.23;8.82;;;;;;;;;;5042593;28;20515;-49
2024/02/06 10:54:56;;;;;;;17.05;11.40;;;;;;;;;;5029054;28;20037;-48
2024/02/06 10:57:25;;;;;;;15.80;13.00;;;;;;;;;;5022673;28;20037;-51
2024/02/06 10:59:54;;;;;;;13.48;8.10;;;;;;;;;;5013149;28;20057;-54
2024/02/06 11:02:24;;;;;;;13.98;8.50;;;;;;;;;;5012696;28;20049;-50
2024/02/06 11:04:53;;;;;;;16.17;8.90;;;;;;;;;;5019599;28;20052;-49
2024/02/06 11:07:20;;;;;;;16.58;9.30;;;;;;;;;;5019702;28;20109;-48
2024/02/06 11:09:47;;;;;;;13.73;8.18;;;;;;;;;;5025938;28;20045;-48
2024/02/06 11:12:13;;;;;;;15.75;8.43;;;;;;;;;;5020321;28;20032;-51
2024/02/06 11:14:41;;;;;;;13.60;8.50;;;;;;;;;;5022859;28;20022;-48
2024/02/06 11:17:09;;;;;;;13.05;7.55;;;;;;;;;;5021711;28;20044;-53
2024/02/06 11:19:45;;;;;;;12.55;7.50;;;;;;;;;;5023245;28;20068;-52
2024/02/06 11:22:32;;;;;;;14.57;8.55;;;;;;;;;;5020190;28;20095;-49
2024/02/06 11:24:58;;;;;;;14.63;9.05;;;;;;;;;;5021427;28;20124;-45
2024/02/06 11:27:25;;;;;;;13.43;7.95;;;;;;;;;;5021530;28;20442;-50
2024/02/06 11:29:51;;;;;;;12.95;7.68;;;;;;;;;;5022983;28;20032;-48
2024/02/06 11:32:18;;;;;;;14.60;9.25;;;;;;;;;;5021098;28;20030;-52
2024/02/06 11:34:55;;;;;;;14.38;8.27;;;;;;;;;;5021591;28;20109;-52
2024/02/06 11:37:25;;;;;;;18.08;10.68;;;;;;;;;;5021752;28;20017;-49
2024/02/06 11:39:51;;;;;;;13.63;8.07;;;;;;;;;;5026397;28;20121;-49
2024/02/06 11:42:26;;;;;;;13.07;7.60;;;;;;;;;;5031804;28;20091;-50
2024/02/06 11:44:52;;;;;;;15.77;8.70;;;;;;;;;;5031781;28;20095;-48
2024/02/06 11:47:21;;;;;;;20.58;9.02;;;;;;;;;;5031632;28;20422;-52
2024/02/06 11:49:47;;;;;;;13.90;8.77;;;;;;;;;;5030137;28;20025;-47
2024/02/06 11:52:22;;;;;;;13.90;8.50;;;;;;;;;;5029910;28;20029;-52
2024/02/06 11:54:50;;;;;;;14.00;8.63;;;;;;;;;;5029689;28;20026;-48
2024/02/06 11:57:16;;;;;;;13.50;8.15;;;;;;;;;;5030160;28;20029;-47
2024/02/06 11:59:43;;;;;;;14.90;9.07;;;;;;;;;;5031051;28;20502;-49
2024/02/06 12:02:13;;;;;;;14.02;8.48;;;;;;;;;;5029530;28;20022;-47
2024/02/06 12:04:39;;;;;;;15.25;11.32;;;;;;;;;;5029731;28;20029;-49
2024/02/06 12:07:06;;;;;;;13.90;9.20;;;;;;;;;;5031407;28;20029;-47
2024/02/06 12:09:40;;;;;;;14.05;8.43;;;;;;;;;;5030691;28;20045;-47
2024/02/06 12:12:06;;;;;;;17.10;9.63;;;;;;;;;;5031873;28;20025;-50
2024/02/06 12:14:32;;;;;;;15.43;9.85;;;;;;;;;;5031918;28;20037;-47
2024/02/06 12:16:58;;;;;;;13.88;8.45;;;;;;;;;;5032206;28;20490;-48
2024/02/06 12:19:25;;;;;;;15.82;8.38;;;;;;;;;;5031945;28;20101;-47
2024/02/06 12:22:00;;;;;;;13.25;7.85;;;;;;;;;;5045291;22;20041;-58
2024/02/06 12:24:26;;;;;;;18.38;8.88;;;;;;;;;;5030293;28;20183;-55
2024/02/06 12:27:03;;;;;;;16.50;10.32;;;;;;;;;;5029960;28;20068;-55
2024/02/06 12:29:29;;;;;;;15.23;9.10;;;;;;;;;;5030408;28;20130;-53
2024/02/06 12:31:55;;;;;;;15.02;8.98;;;;;;;;;;5029996;28;20225;-53
2024/02/06 12:34:21;;;;;;;13.80;8.40;;;;;;;;;;5029737;28;20120;-55
2024/02/06 12:36:47;;;;;;;14.82;8.60;;;;;;;;;;5029884;28;20065;-53
2024/02/06 12:39:16;;;;;;;14.65;8.95;;;;;;;;;;5045199;28;20059;-50
2024/02/06 12:41:43;;;;;;;13.70;8.20;;;;;;;;;;5029342;28;20091;-52
2024/02/06 12:44:09;;;;;;;16.20;9.48;;;;;;;;;;5034587;28;20466;-55
2024/02/06 12:46:35;;;;;;;13.70;8.73;;;;;;;;;;5029633;28;20115;-55
2024/02/06 12:49:03;;;;;;;19.27;9.57;;;;;;;;;;5023155;28;20050;-52
2024/02/06 12:51:29;;;;;;;14.13;8.27;;;;;;;;;;5031663;28;20041;-53
2024/02/06 12:53:56;;;;;;;14.00;8.55;;;;;;;;;;5029292;28;20021;-53
2024/02/06 12:56:24;;;;;;;13.38;7.75;;;;;;;;;;5027110;28;20033;-57
2024/02/06 12:58:50;;;;;;;14.48;8.55;;;;;;;;;;5029099;28;20025;-50
2024/02/06 13:01:21;;;;;;;12.82;7.53;;;;;;;;;;5028598;28;20021;-54
2024/02/06 13:03:56;;;;;;;15.98;9.18;;;;;;;;;;5028872;28;20097;-54
2024/02/06 13:06:32;;;;;;;14.30;8.63;;;;;;;;;;5050352;28;20202;-51
2024/02/06 13:08:58;;;;;;;14.20;9.60;;;;;;;;;;5028853;28;20066;-55
2024/02/06 13:11:26;;;;;;;13.90;9.38;;;;;;;;;;5028871;28;20021;-54
2024/02/06 13:13:55;;;;;;;15.15;10.00;;;;;;;;;;5029473;28;20037;-55
2024/02/06 13:16:22;;;;;;;16.02;10.50;;;;;;;;;;5028934;28;20391;-55
2024/02/06 13:19:00;;;;;;;15.50;11.23;;;;;;;;;;5027648;28;20536;-51
2024/02/06 13:21:38;;;;;;;21.55;12.93;;;;;;;;;;5043482;28;20024;-58
2024/02/06 13:24:07;;;;;;;17.38;13.30;;;;;;;;;;5028796;28;20516;-53
2024/02/06 13:26:33;;;;;;;16.15;12.85;;;;;;;;;;5025986;28;20107;-55
2024/02/06 13:28:59;;;;;;;22.20;13.52;;;;;;;;;;5028750;28;20029;-54
2024/02/06 13:31:25;;;;;;;14.68;11.32;;;;;;;;;;5029391;28;20072;-54
2024/02/06 13:33:52;;;;;;;17.13;13.13;;;;;;;;;;5028581;28;20022;-54
2024/02/06 13:36:18;;;;;;;20.15;12.32;;;;;;;;;;5028424;28;20399;-55
2024/02/06 13:38:44;;;;;;;14.50;10.00;;;;;;;;;;5028545;28;20037;-56
2024/02/06 13:41:10;;;;;;;14.32;9.93;;;;;;;;;;5028277;28;20479;-59
2024/02/06 13:43:37;;;;;;;15.05;10.00;;;;;;;;;;5023228;28;20024;-57
2024/02/06 13:46:03;;;;;;;14.02;9.30;;;;;;;;;;5024982;28;20103;-52
2024/02/06 13:48:30;;;;;;;14.57;10.05;;;;;;;;;;5010948;28;20076;-56
2024/02/06 13:50:56;;;;;;;15.15;9.95;;;;;;;;;;5019583;28;20574;-53
2024/02/06 13:53:22;;;;;;;14.63;9.90;;;;;;;;;;5026654;28;20116;-55
2024/02/06 13:55:50;;;;;;;19.55;12.52;;;;;;;;;;5028002;28;20022;-55
2024/02/06 13:58:16;;;;;;;14.43;9.63;;;;;;;;;;5028416;28;20018;-55
2024/02/06 14:00:43;;;;;;;16.75;9.48;;;;;;;;;;5042606;28;20495;-59
2024/02/06 14:03:09;;;;;;;17.20;9.25;;;;;;;;;;5028466;28;20480;-51
2024/02/06 14:05:35;;;;;;;15.90;10.30;;;;;;;;;;5027455;28;20124;-52
2024/02/06 14:08:01;;;;;;;14.15;9.20;;;;;;;;;;5028378;28;20068;-51
2024/02/06 14:10:27;;;;;;;14.52;10.40;;;;;;;;;;5028679;28;20072;-53
2024/02/06 14:12:53;;;;;;;14.32;10.13;;;;;;;;;;5027924;28;20022;-55
2024/02/06 14:15:20;;;;;;;17.05;10.32;;;;;;;;;;5028464;28;20060;-51
2024/02/06 14:17:47;;;;;;;16.85;9.55;;;;;;;;;;5028848;28;20050;-55
2024/02/06 14:20:14;;;;;;;14.25;10.38;;;;;;;;;;5028622;28;20022;-53